Flight Number: EUR2309 Duration: 2:00
Departure: Munich Int'l (EDDM) at 08:00 Distance: 747 Nm
Arrival: Skiathos (LGSK) at 10:00 Equipment: A321

Weather Information
404 Not Found

Not Found

The requested URL /data/observations/metar/decoded/EDDM.TXT was not found on this server.


Sunrise: 03:30 Sunset: 18:48 (UTC)

Skiathos Island, Greece (LGSK) 39-11N 023-30E May 20, 2018 - 09:50 AM EDT / 2018.05.20 1350 UTC
Wind: from the NNE (030 degrees) at 7 MPH (6 KT):0
Visibility: greater than 7 mile(s):0
Sky conditions: mostly clear Temperature: 73 F (23 C) Dew Point: 62 F (17 C) Relative Humidity: 68% Pressure (altimeter): 29.94 in. Hg (1014 hPa)
ob: LGSK 201350Z 03006KT 9999 FEW020 23/17 Q1014 cycle: 14
Sunrise: 03:11 Sunset: 17:33 (UTC)

TAF:2012/09/27 00:18 TAF LGSK 272300Z 2800/2909 01010KT 9999 FEW020

Previous Pireps for this route
Date Aircraft Flight time Fuel used Landing rate On time
2016-01-30B7772.0044306-183Charter
2016-02-08A32102.1211906-62Yes
(pireps marked green are flown by you)

Route map